Terminal Aerodrome Forecast
Issued by NWS Melbourne, FL

Home | Current Version | Previous Version | Text Only | Print | Product List | Glossary On
Versions: 1 2 3 4 5 6 7 8 9 10 11 12 13
141
FTUS42 KMLB 141136
TAFVRB
TAF
KVRB 141136Z 1412/1512 02007KT P6SM SKC
     FM141400 04010KT P6SM FEW030
     FM141700 08013G18KT P6SM BKN035
     FM150200 10008KT P6SM OVC040=

USA.gov is the U.S. government's official web portal to all federal, state and local government web resources and services.